Time;durP1;ratioP1;P1;durP2;ratioP2;P2;SDS_P1;SDS_P2;PMS_P1;PMS_P2;Temp;Humidity;BMP_temperature;BMP_pressure;BME280_temperature;BME280_humidity;BME280_pressure;Samples;Min_cycle;Max_cycle;Signal;HPM_P1;HPM_P2
2022/09/21 00:00:39;;;;;;;10.40;9.90;;;;;;;8.73;82.27;92924.72;5135834;27;20227;-72
2022/09/21 00:03:05;;;;;;;9.93;9.53;;;;;;;8.54;82.99;92910.63;5133741;27;20239;-72
2022/09/21 00:05:32;;;;;;;10.63;10.13;;;;;;;8.65;82.73;92930.44;5131639;27;20289;-72
2022/09/21 00:08:03;;;;;;;10.57;10.07;;;;;;;8.58;83.21;92930.69;5128996;27;20183;-73
2022/09/21 00:10:29;;;;;;;10.20;9.70;;;;;;;8.57;82.71;92923.13;5130304;28;20227;-71
2022/09/21 00:12:56;;;;;;;9.90;9.50;;;;;;;8.48;83.67;92925.47;5128922;28;20208;-72
2022/09/21 00:15:21;;;;;;;10.87;10.37;;;;;;;8.47;84.39;92933.53;5129846;27;20293;-73
2022/09/21 00:17:51;;;;;;;10.60;10.10;;;;;;;8.67;83.72;92939.53;5129846;27;20187;-72
2022/09/21 00:20:16;;;;;;;10.40;9.90;;;;;;;8.57;83.91;92934.34;5129194;27;20220;-73
2022/09/21 00:22:42;;;;;;;10.20;9.63;;;;;;;8.47;84.37;92934.31;5133239;27;20206;-72
2022/09/21 00:25:08;;;;;;;10.67;10.17;;;;;;;8.61;83.90;92939.78;5132782;27;20249;-72
2022/09/21 00:27:34;;;;;;;10.23;9.83;;;;;;;8.27;84.01;92899.66;5130233;27;20187;-72
2022/09/21 00:30:02;;;;;;;9.37;9.03;;;;;;;8.44;85.44;92941.81;5132005;27;20219;-72
2022/09/21 00:32:30;;;;;;;10.73;10.23;;;;;;;8.38;85.07;92928.03;5131496;27;20201;-72
2022/09/21 00:34:59;;;;;;;10.77;10.27;;;;;;;8.42;85.41;92923.13;5129398;27;20225;-72
2022/09/21 00:37:25;;;;;;;10.47;10.07;;;;;;;8.50;84.68;92922.63;5132321;27;20187;-73
2022/09/21 00:39:50;;;;;;;9.67;9.27;;;;;;;8.45;84.80;92925.19;5128000;28;20210;-73
2022/09/21 00:42:19;;;;;;;10.07;9.57;;;;;;;8.40;85.00;92922.59;5130847;27;20194;-72
2022/09/21 00:44:45;;;;;;;10.93;10.27;;;;;;;8.33;85.08;92902.00;5132430;27;20808;-73
2022/09/21 00:47:18;;;;;;;10.67;10.17;;;;;;;8.45;85.71;92920.00;5129704;27;20178;-73
2022/09/21 00:49:48;;;;;;;10.07;9.63;;;;;;;8.51;85.16;92918.97;5128722;28;20261;-73
2022/09/21 00:52:18;;;;;;;10.70;10.20;;;;;;;8.54;85.44;92915.84;5128543;28;20187;-72
2022/09/21 00:54:51;;;;;;;10.00;9.60;;;;;;;8.37;85.77;92904.88;5127823;28;20267;-72
2022/09/21 00:57:20;;;;;;;9.57;9.17;;;;;;;8.29;86.76;92921.00;5128862;28;20187;-72
2022/09/21 00:59:49;;;;;;;10.60;10.10;;;;;;;8.23;86.75;92904.59;5130025;28;20219;-73
2022/09/21 01:02:15;;;;;;;10.20;9.80;;;;;;;8.26;87.13;92916.31;5126528;28;20195;-72
2022/09/21 01:04:41;;;;;;;10.80;10.20;;;;;;;8.23;87.23;92914.22;5128234;28;20221;-72
2022/09/21 01:07:11;;;;;;;11.43;10.93;;;;;;;8.21;87.04;92919.66;5127930;28;20188;-72
2022/09/21 01:09:38;;;;;;;10.67;10.17;;;;;;;8.16;87.33;92917.03;5128684;28;20259;-73
2022/09/21 01:12:17;;;;;;;10.93;10.43;;;;;;;8.03;88.40;92917.53;5128706;28;20215;-72
2022/09/21 01:15:04;;;;;;;11.83;11.23;;;;;;;8.18;87.18;92915.75;5127339;28;20274;-73
2022/09/21 01:17:42;;;;;;;10.53;10.03;;;;;;;8.16;87.50;92912.63;5128600;28;20190;-73
2022/09/21 01:20:24;;;;;;;12.00;11.40;;;;;;;8.05;87.84;92921.41;5124716;28;20218;-72
2022/09/21 01:23:32;;;;;;;10.53;10.00;;;;;;;8.07;87.82;92911.56;5128070;28;20188;-72
2022/09/21 01:26:25;;;;;;;11.17;10.50;;;;;;;8.01;87.93;92909.97;5106719;28;20218;-72
2022/09/21 01:29:18;;;;;;;9.87;9.47;;;;;;;7.93;88.72;92907.88;5129246;28;20233;-72
2022/09/21 01:31:58;;;;;;;10.27;9.73;;;;;;;7.95;88.32;92890.16;5127730;28;20187;-72
2022/09/21 01:34:38;;;;;;;11.63;11.03;;;;;;;7.99;88.51;92901.66;5126536;28;20218;-73
2022/09/21 01:37:12;;;;;;;9.50;9.10;;;;;;;8.08;87.32;92894.13;5127134;28;20187;-72
2022/09/21 01:39:42;;;;;;;11.13;10.53;;;;;;;8.02;88.07;92895.94;5127981;28;20245;-72
2022/09/21 01:42:09;;;;;;;10.63;10.00;;;;;;;8.20;87.63;92892.84;5127018;28;20182;-72
2022/09/21 01:44:38;;;;;;;11.23;10.53;;;;;;;8.05;88.17;92886.81;5127081;28;20219;-72
2022/09/21 01:47:08;;;;;;;9.60;9.10;;;;;;;7.89;89.18;92898.22;5128294;28;20175;-72
2022/09/21 01:49:40;;;;;;;10.70;10.10;;;;;;;7.91;88.91;92896.94;5129386;28;20238;-72
2022/09/21 01:52:30;;;;;;;10.03;9.53;;;;;;;7.76;88.38;92864.91;5146116;27;20194;-72
2022/09/21 01:55:09;;;;;;;10.00;9.30;;;;;;;7.76;89.16;92881.28;5125874;28;20219;-73
2022/09/21 01:57:47;;;;;;;9.77;9.17;;;;;;;7.83;89.18;92902.63;5128984;28;20191;-72
2022/09/21 02:00:14;;;;;;;10.40;9.90;;;;;;;7.88;88.65;92884.44;5128410;28;20225;-71
2022/09/21 02:02:50;;;;;;;10.93;10.23;;;;;;;7.60;90.96;92892.66;5129632;28;20280;-72
2022/09/21 02:05:19;;;;;;;10.37;9.77;;;;;;;7.74;89.55;92869.56;5129216;28;21747;-72
2022/09/21 02:07:46;;;;;;;10.17;9.63;;;;;;;7.82;89.41;92893.25;5128980;28;20171;-72
2022/09/21 02:10:19;;;;;;;11.50;10.77;;;;;;;7.70;89.52;92877.13;5127920;28;20223;-72
2022/09/21 02:12:45;;;;;;;11.50;10.80;;;;;;;7.59;89.80;92875.50;5127630;28;20901;-74
2022/09/21 02:15:11;;;;;;;11.80;10.97;;;;;;;7.46;90.56;92862.97;5128812;28;20231;-76
2022/09/21 02:17:59;;;;;;;12.27;11.07;;;;;;;7.52;90.22;92874.94;5129037;28;20188;-77
2022/09/21 02:20:31;;;;;;;10.30;9.70;;;;;;;7.49;90.30;92891.03;5127515;28;20215;-77
2022/09/21 02:23:18;;;;;;;10.67;10.07;;;;;;;7.46;90.81;92891.53;5128019;28;20191;-76
2022/09/21 02:26:03;;;;;;;10.87;10.27;;;;;;;7.49;90.69;92891.03;5127945;28;20661;-76
2022/09/21 02:28:54;;;;;;;11.57;10.67;;;;;;;7.53;90.68;92907.66;5127914;28;20206;-76
2022/09/21 02:31:36;;;;;;;12.20;11.57;;;;;;;7.18;91.50;92888.50;5128711;28;20176;-77
2022/09/21 02:34:24;;;;;;;11.47;10.77;;;;;;;7.47;90.53;92910.50;5127242;28;20928;-77
2022/09/21 02:37:01;;;;;;;12.97;12.07;;;;;;;7.37;90.26;92898.25;5130565;28;20211;-76
2022/09/21 02:39:37;;;;;;;11.73;10.93;;;;;;;6.80;90.16;92810.94;5133074;28;20222;-76
2022/09/21 02:42:11;;;;;;;12.23;11.47;;;;;;;7.35;90.27;92904.72;5130590;28;20232;-77
2022/09/21 02:44:51;;;;;;;12.10;11.40;;;;;;;6.99;91.52;92882.94;5132169;28;20525;-76
2022/09/21 02:47:38;;;;;;;11.53;10.83;;;;;;;7.03;91.97;92899.59;5131921;28;20215;-76
2022/09/21 02:50:11;;;;;;;12.27;11.50;;;;;;;6.97;92.70;92898.00;5127457;28;20227;-76
2022/09/21 02:52:41;;;;;;;11.90;11.10;;;;;;;6.69;93.78;92900.13;5131377;28;20201;-76
2022/09/21 02:55:08;;;;;;;11.57;10.73;;;;;;;6.88;93.39;92914.28;5130408;28;20211;-76
2022/09/21 02:57:36;;;;;;;11.93;11.23;;;;;;;6.76;93.02;92891.09;5132387;28;20224;-74
2022/09/21 03:00:04;;;;;;;12.37;11.63;;;;;;;6.81;93.36;92905.91;5131503;28;20235;-74
2022/09/21 03:02:41;;;;;;;12.70;11.80;;;;;;;6.75;93.55;92904.31;5131369;28;20279;-74
2022/09/21 03:05:08;;;;;;;13.17;11.97;;;;;;;6.73;93.39;92901.97;5130291;27;20219;-74
2022/09/21 03:07:33;;;;;;;13.03;12.23;;;;;;;6.75;93.26;92907.69;5130934;28;20179;-74
2022/09/21 03:09:59;;;;;;;12.57;11.47;;;;;;;6.63;93.73;92909.66;5130853;28;20248;-74
2022/09/21 03:12:25;;;;;;;12.53;11.60;;;;;;;6.67;93.93;92902.16;5132516;28;20221;-74
2022/09/21 03:14:51;;;;;;;12.63;11.63;;;;;;;6.65;93.23;92909.41;5130513;28;20298;-74
2022/09/21 03:17:17;;;;;;;11.30;10.60;;;;;;;6.81;92.81;92909.28;5132147;28;20183;-73
2022/09/21 03:19:42;;;;;;;11.30;10.63;;;;;;;6.71;92.89;92900.66;5131861;28;20257;-74
2022/09/21 03:22:08;;;;;;;12.23;11.40;;;;;;;6.72;92.76;92910.00;5131557;28;20191;-72
2022/09/21 03:24:45;;;;;;;11.00;10.03;;;;;;;6.70;92.84;92902.47;5130628;28;20223;-74
2022/09/21 03:27:16;;;;;;;11.50;10.80;;;;;;;6.68;92.13;92904.50;5131489;28;20183;-74
2022/09/21 03:29:41;;;;;;;12.13;11.53;;;;;;;6.51;92.59;92886.47;5132170;28;20217;-73
2022/09/21 03:32:07;;;;;;;10.80;10.20;;;;;;;6.68;92.56;92911.53;5128916;28;20211;-74
2022/09/21 03:34:33;;;;;;;9.33;8.93;;;;;;;6.47;92.41;92902.78;5131001;28;20223;-74
2022/09/21 03:37:00;;;;;;;11.27;10.57;;;;;;;6.45;92.89;92910.00;5128575;28;20191;-74
2022/09/21 03:39:25;;;;;;;11.03;10.43;;;;;;;6.52;92.46;92913.22;5130845;28;20249;-74
2022/09/21 03:41:51;;;;;;;10.90;10.40;;;;;;;6.55;92.72;92905.69;5131964;28;20175;-74
2022/09/21 03:44:16;;;;;;;10.47;9.67;;;;;;;6.32;92.67;92856.75;5130799;27;20230;-74
2022/09/21 03:46:43;;;;;;;10.47;9.70;;;;;;;6.71;91.94;92908.44;5130302;28;20170;-74
2022/09/21 03:49:08;;;;;;;11.00;10.40;;;;;;;6.87;91.22;92916.09;5129990;28;21808;-74
2022/09/21 03:51:33;;;;;;;10.93;10.43;;;;;;;6.58;91.73;92899.25;5130851;28;20204;-75
2022/09/21 03:53:59;;;;;;;10.93;10.43;;;;;;;6.57;91.37;92893.28;5129380;28;20223;-74
2022/09/21 03:56:24;;;;;;;10.03;9.53;;;;;;;6.52;92.07;92895.06;5130042;28;20202;-73
2022/09/21 03:58:49;;;;;;;12.70;12.03;;;;;;;6.67;92.59;92917.72;5126336;28;20294;-69
2022/09/21 04:01:15;;;;;;;11.53;10.93;;;;;;;6.67;92.26;92910.72;5128912;28;20206;-68
2022/09/21 04:03:40;;;;;;;10.20;9.60;;;;;;;6.76;91.42;92918.84;5130144;27;20242;-68
2022/09/21 04:06:10;;;;;;;11.80;11.10;;;;;;;6.63;92.01;92919.25;5130546;28;20207;-73
2022/09/21 04:08:36;;;;;;;11.10;10.60;;;;;;;6.58;91.72;92904.44;5129486;27;20238;-72
2022/09/21 04:11:08;;;;;;;9.63;9.13;;;;;;;6.71;91.03;92904.00;5129282;28;20194;-73
2022/09/21 04:13:34;;;;;;;10.63;9.83;;;;;;;6.86;90.92;92916.34;5127957;28;20252;-74
2022/09/21 04:16:00;;;;;;;10.53;9.93;;;;;;;6.69;91.77;92911.28;5125955;28;20171;-73
2022/09/21 04:18:25;;;;;;;10.37;9.83;;;;;;;6.88;90.94;92920.22;5129748;28;20271;-73
2022/09/21 04:20:50;;;;;;;9.70;9.20;;;;;;;7.02;90.21;92918.03;5128004;28;20243;-74
2022/09/21 04:23:16;;;;;;;11.30;10.37;;;;;;;7.06;89.89;92901.69;5130570;28;20213;-73
2022/09/21 04:25:42;;;;;;;9.97;9.57;;;;;;;7.17;89.87;92918.91;5128177;28;20309;-72
2022/09/21 04:28:08;;;;;;;10.20;9.80;;;;;;;7.27;89.71;92924.16;5129748;28;20229;-74
2022/09/21 04:30:34;;;;;;;10.30;9.60;;;;;;;7.30;89.20;92902.88;5128587;27;20219;-75
2022/09/21 04:32:59;;;;;;;10.53;9.93;;;;;;;7.21;88.80;92901.00;5130208;28;20187;-73
2022/09/21 04:35:24;;;;;;;10.10;9.70;;;;;;;7.28;88.88;92889.38;5126567;28;20230;-71
2022/09/21 04:37:55;;;;;;;10.47;9.90;;;;;;;7.72;87.65;92921.78;5130210;28;20207;-71
2022/09/21 04:40:22;;;;;;;10.23;9.83;;;;;;;7.81;86.23;92925.47;5126628;28;20223;-74
2022/09/21 04:42:51;;;;;;;9.43;9.03;;;;;;;7.98;85.21;92920.84;5128245;28;20213;-71
2022/09/21 04:45:16;;;;;;;8.93;8.63;;;;;;;8.31;83.84;92926.72;5127736;27;20239;-73
2022/09/21 04:47:42;;;;;;;9.27;8.87;;;;;;;8.26;83.44;92900.69;5128394;28;20187;-77
2022/09/21 04:50:08;;;;;;;8.67;8.37;;;;;;;8.50;83.01;92904.41;5128723;28;20275;-76
2022/09/21 04:52:34;;;;;;;8.50;8.20;;;;;;;8.63;81.92;92924.69;5127864;28;20203;-76
2022/09/21 04:54:59;;;;;;;10.47;10.07;;;;;;;8.50;79.75;92873.94;5126065;28;20222;-75
2022/09/21 04:57:24;;;;;;;9.13;8.80;;;;;;;8.92;80.15;92931.00;5129189;28;20177;-76
2022/09/21 04:59:50;;;;;;;8.93;8.53;;;;;;;8.96;79.02;92932.81;5128916;28;20228;-76
2022/09/21 05:02:15;;;;;;;8.47;8.17;;;;;;;9.15;77.66;92930.47;5130931;28;20210;-76
2022/09/21 05:04:40;;;;;;;9.03;8.73;;;;;;;9.17;76.33;92928.34;5127195;28;20272;-76
2022/09/21 05:07:06;;;;;;;9.40;9.00;;;;;;;9.11;73.91;92905.97;5129694;28;20179;-75
2022/09/21 05:12:15;;;;;;;8.47;8.17;;;;;;;9.64;69.31;92918.38;5129922;28;20196;-77
2022/09/21 05:14:42;;;;;;;8.33;7.93;;;;;;;9.96;70.87;92937.06;5127588;28;20231;-76
2022/09/21 05:17:08;;;;;;;9.20;8.90;;;;;;;10.19;69.64;92941.72;5129091;27;20645;-76
2022/09/21 05:19:33;;;;;;;8.17;7.87;;;;;;;10.07;69.73;92946.44;5127788;28;20226;-77
2022/09/21 05:21:59;;;;;;;9.43;9.03;;;;;;;10.10;74.75;92943.28;5129594;28;20259;-76
2022/09/21 05:24:24;;;;;;;11.30;10.70;;;;;;;10.28;73.02;92918.44;5128169;28;20241;-76
2022/09/21 05:26:49;;;;;;;11.47;10.77;;;;;;;10.18;73.32;92939.38;5128992;28;20203;-76
2022/09/21 05:29:15;;;;;;;10.73;10.13;;;;;;;9.76;75.26;92904.00;5127489;28;20286;-76
2022/09/21 05:31:52;;;;;;;11.97;10.97;;;;;;;9.67;77.20;92928.28;5129269;28;20190;-75
2022/09/21 05:35:02;;;;;;;13.07;12.17;;;;;;;9.72;76.36;92923.06;5128618;28;20254;-76
2022/09/21 05:37:56;;;;;;;10.43;9.83;;;;;;;9.88;76.61;92940.22;5117594;28;20918;-76
2022/09/21 05:40:21;;;;;;;11.60;10.90;;;;;;;9.81;77.28;92931.91;5124650;28;20865;-77
2022/09/21 05:42:47;;;;;;;12.37;11.30;;;;;;;9.71;77.14;92937.91;5128469;27;20183;-76
2022/09/21 05:45:15;;;;;;;11.83;10.93;;;;;;;10.13;75.55;92934.97;5127314;27;20226;-77
2022/09/21 05:47:52;;;;;;;11.70;10.80;;;;;;;10.13;75.94;92937.56;5129502;28;20198;-75
2022/09/21 05:50:21;;;;;;;10.80;9.90;;;;;;;9.68;76.28;92903.78;5127636;28;20242;-76
2022/09/21 05:53:10;;;;;;;9.90;9.40;;;;;;;10.36;75.21;92949.19;5128456;28;20201;-76
2022/09/21 05:55:45;;;;;;;8.83;8.43;;;;;;;10.10;74.15;92932.84;5128691;28;20219;-76
2022/09/21 05:58:22;;;;;;;10.77;10.00;;;;;;;10.40;74.65;92940.56;5126421;28;20299;-77
2022/09/21 06:01:09;;;;;;;10.97;10.27;;;;;;;10.47;75.25;92935.84;5127618;28;20252;-75
2022/09/21 06:03:35;;;;;;;10.90;10.30;;;;;;;10.68;72.49;92920.81;5127586;28;20250;-76
2022/09/21 06:06:00;;;;;;;8.53;8.13;;;;;;;10.22;72.00;92935.16;5129572;28;20192;-74
2022/09/21 06:08:26;;;;;;;8.87;8.57;;;;;;;10.67;69.67;92956.63;5127542;28;20235;-76
2022/09/21 06:10:53;;;;;;;8.30;7.90;;;;;;;10.75;70.28;92956.03;5130143;28;20217;-77
2022/09/21 06:13:19;;;;;;;8.63;8.33;;;;;;;10.74;68.37;92954.47;5133298;28;20175;-76
2022/09/21 06:15:44;;;;;;;8.83;8.53;;;;;;;10.71;69.37;92941.16;5132260;28;20237;-76
2022/09/21 06:18:10;;;;;;;8.40;8.10;;;;;;;10.84;67.61;92943.19;5133211;28;20187;-76
2022/09/21 06:20:35;;;;;;;9.00;8.60;;;;;;;11.33;65.03;92962.16;5132545;28;20220;-76
2022/09/21 06:23:09;;;;;;;8.20;7.80;;;;;;;11.39;63.83;92961.06;5132184;28;20195;-75
2022/09/21 06:25:35;;;;;;;8.07;7.83;;;;;;;11.06;65.55;92961.84;5131228;28;20505;-76
2022/09/21 06:28:05;;;;;;;8.93;8.63;;;;;;;11.32;64.09;92968.44;5131170;28;20187;-76
2022/09/21 06:30:34;;;;;;;9.03;8.67;;;;;;;11.50;62.82;92973.00;5130384;27;20223;-76
2022/09/21 06:33:00;;;;;;;8.77;8.37;;;;;;;11.38;63.31;92969.19;5132301;27;20183;-76
2022/09/21 06:35:27;;;;;;;8.00;7.80;;;;;;;11.13;63.56;92968.31;5130496;28;20292;-76
2022/09/21 06:37:56;;;;;;;8.80;8.50;;;;;;;11.46;63.88;92982.44;5133328;28;20243;-76
2022/09/21 06:40:22;;;;;;;8.40;7.90;;;;;;;11.15;63.75;92976.66;5130144;28;20223;-76
2022/09/21 06:42:47;;;;;;;8.13;7.53;;;;;;;11.00;64.28;92984.59;5133232;28;20184;-77
2022/09/21 06:45:13;;;;;;;7.37;7.17;;;;;;;10.84;63.59;92977.91;5132402;27;20216;-76
2022/09/21 06:47:38;;;;;;;8.10;7.80;;;;;;;11.61;63.63;92992.00;5132414;28;20208;-76
2022/09/21 06:50:04;;;;;;;9.23;8.93;;;;;;;11.40;63.73;92973.06;5128540;28;20223;-76
2022/09/21 06:52:29;;;;;;;8.10;7.80;;;;;;;11.56;62.98;92989.41;5132416;28;20189;-75
2022/09/21 06:54:54;;;;;;;8.90;8.50;;;;;;;11.25;64.28;92971.34;5130061;28;20667;-76
2022/09/21 06:57:20;;;;;;;7.73;7.43;;;;;;;11.67;63.11;92990.91;5131406;28;20179;-76
2022/09/21 06:59:45;;;;;;;8.53;8.23;;;;;;;11.74;63.79;92988.75;5131440;28;20287;-75
2022/09/21 07:02:11;;;;;;;8.67;8.37;;;;;;;12.28;62.90;92978.78;5132164;28;20188;-83
2022/09/21 07:04:36;;;;;;;7.83;7.53;;;;;;;12.71;61.56;92975.09;5131971;28;20226;-74
2022/09/21 07:07:02;;;;;;;9.03;8.50;;;;;;;12.40;61.59;92972.09;5130599;28;21145;-77
2022/09/21 07:09:27;;;;;;;8.50;8.17;;;;;;;12.81;60.14;92990.69;5129513;28;20222;-78
2022/09/21 07:11:53;;;;;;;9.33;8.80;;;;;;;12.26;61.38;92986.13;5132245;28;20187;-77
2022/09/21 07:14:21;;;;;;;8.83;8.53;;;;;;;12.66;61.27;92968.09;5128676;28;20249;-78
2022/09/21 07:16:46;;;;;;;8.10;7.70;;;;;;;12.53;61.25;92991.56;5129963;28;20219;-78
2022/09/21 07:19:12;;;;;;;9.43;9.03;;;;;;;12.55;61.65;92992.06;5128957;27;20226;-76
2022/09/21 07:21:37;;;;;;;8.57;8.27;;;;;;;12.69;62.16;92985.06;5129367;27;20192;-75
2022/09/21 07:24:03;;;;;;;9.20;8.80;;;;;;;12.46;62.37;92980.66;5124865;28;20266;-72
2022/09/21 07:26:28;;;;;;;8.23;7.93;;;;;;;12.45;62.83;92979.13;5130076;28;20220;-70
2022/09/21 07:28:54;;;;;;;8.77;8.37;;;;;;;12.23;62.47;92984.06;5126702;28;20249;-69
2022/09/21 07:31:19;;;;;;;8.77;8.47;;;;;;;12.12;62.80;92995.72;5130961;28;20183;-69
2022/09/21 07:33:47;;;;;;;9.30;8.90;;;;;;;12.76;63.84;92985.53;5127881;28;20261;-71
2022/09/21 07:36:13;;;;;;;8.87;8.47;;;;;;;12.36;63.54;92999.09;5130546;28;20191;-70
2022/09/21 07:38:42;;;;;;;8.87;8.47;;;;;;;12.55;64.08;92995.47;5128419;28;20192;-69
2022/09/21 07:41:09;;;;;;;9.57;9.07;;;;;;;12.10;65.27;92990.75;5129477;28;20220;-74
2022/09/21 07:43:38;;;;;;;9.03;8.63;;;;;;;12.53;64.32;92999.41;5128076;28;20207;-76
2022/09/21 07:46:04;;;;;;;9.57;8.97;;;;;;;12.27;64.71;92990.31;5128804;28;20190;-78
2022/09/21 07:48:29;;;;;;;8.53;8.23;;;;;;;12.25;63.99;92987.97;5126188;28;20271;-78
2022/09/21 07:51:03;;;;;;;8.90;8.53;;;;;;;12.22;63.81;92985.13;5129583;28;20251;-78
2022/09/21 07:53:30;;;;;;;9.23;8.83;;;;;;;12.31;64.83;92993.94;5129578;28;20207;-79
2022/09/21 07:56:03;;;;;;;9.60;9.20;;;;;;;12.29;64.02;92993.44;5129341;28;20175;-77
2022/09/21 08:01:12;;;;;;;9.20;8.70;;;;;;;12.21;64.40;92994.03;5130582;28;20194;-75
2022/09/21 08:03:37;;;;;;;9.37;8.90;;;;;;;12.49;64.02;92982.72;5128058;28;20183;-76
2022/09/21 08:06:03;;;;;;;10.03;9.27;;;;;;;12.61;64.71;92988.31;5126882;28;20207;-76
2022/09/21 08:08:29;;;;;;;9.70;9.00;;;;;;;12.82;64.38;92979.91;5128736;28;20226;-76
2022/09/21 08:10:56;;;;;;;8.83;8.53;;;;;;;13.10;61.50;92996.63;5128825;28;20198;-77
2022/09/21 08:13:21;;;;;;;8.83;8.43;;;;;;;13.19;60.33;92996.75;5128687;27;20181;-77
2022/09/21 08:15:56;;;;;;;9.40;9.00;;;;;;;12.82;62.41;92992.25;5128707;28;20224;-76
2022/09/21 08:18:21;;;;;;;9.20;8.87;;;;;;;12.35;64.19;93000.94;5128892;28;20238;-76
2022/09/21 08:20:53;;;;;;;8.37;8.07;;;;;;;12.58;61.48;92953.00;5126983;28;20192;-77
2022/09/21 08:23:18;;;;;;;9.27;8.87;;;;;;;12.84;62.86;92998.00;5128527;28;20179;-77
2022/09/21 08:25:44;;;;;;;8.67;8.30;;;;;;;13.02;61.09;93005.13;5128082;28;20242;-76
2022/09/21 08:28:10;;;;;;;9.93;9.53;;;;;;;13.24;60.59;92992.22;5125397;28;20199;-77
2022/09/21 08:30:35;;;;;;;9.07;8.77;;;;;;;13.44;59.26;92999.78;5128341;28;20215;-77
2022/09/21 08:33:00;;;;;;;9.73;9.27;;;;;;;13.10;60.39;92975.66;5128245;28;20199;-78
2022/09/21 08:35:26;;;;;;;8.93;8.63;;;;;;;13.30;60.91;92992.91;5128502;28;20337;-80
2022/09/21 08:37:53;;;;;;;10.00;9.60;;;;;;;13.30;60.93;92983.22;5128817;28;20307;-79
2022/09/21 08:40:19;;;;;;;9.03;8.63;;;;;;;13.36;59.84;93000.41;5143745;27;20228;-79
2022/09/21 08:42:57;;;;;;;9.40;8.93;;;;;;;13.59;59.19;92991.66;5128503;28;20225;-79
2022/09/21 08:45:31;;;;;;;7.97;7.63;;;;;;;13.57;58.66;92991.16;5127035;28;20227;-80
2022/09/21 08:47:59;;;;;;;9.50;9.07;;;;;;;13.85;59.15;92992.78;5127685;28;20195;-78
2022/09/21 08:50:38;;;;;;;8.90;8.50;;;;;;;14.18;56.93;92970.69;5127497;28;20231;-79
2022/09/21 08:53:06;;;;;;;9.77;9.37;;;;;;;13.90;57.89;92968.31;5126919;28;20186;-80
2022/09/21 08:55:32;;;;;;;9.33;8.93;;;;;;;13.47;58.84;92970.34;5125727;28;20246;-77
2022/09/21 08:57:59;;;;;;;8.70;8.37;;;;;;;13.38;59.21;92982.56;5129284;28;20263;-76
2022/09/21 09:00:25;;;;;;;8.23;7.93;;;;;;;12.98;59.97;92945.66;5127177;28;20250;-75
2022/09/21 09:03:23;;;;;;;8.20;7.90;;;;;;;13.21;60.39;92977.06;5126279;28;20263;-77
2022/09/21 09:05:57;;;;;;;8.77;8.40;;;;;;;13.31;57.86;92971.66;5127887;28;20301;-70
2022/09/21 09:09:07;;;;;;;9.70;9.20;;;;;;;13.25;56.89;92980.66;5127105;28;20207;-70
2022/09/21 09:12:13;;;;;;;9.47;8.97;;;;;;;13.13;58.57;92972.47;5126440;28;20195;-70
2022/09/21 09:15:26;;;;;;;9.57;9.00;;;;;;;13.50;56.51;92966.38;5127658;28;20223;-71
2022/09/21 09:18:32;;;;;;;9.67;9.27;;;;;;;13.35;56.89;92971.84;5086506;28;20189;-74
2022/09/21 09:21:08;;;;;;;8.73;8.33;;;;;;;13.06;59.82;92955.53;5119239;28;20208;-74
2022/09/21 09:23:41;;;;;;;9.90;9.50;;;;;;;13.25;60.15;92961.50;5127861;28;20183;-74
2022/09/21 09:26:18;;;;;;;8.50;8.20;;;;;;;13.73;58.33;92942.63;5127630;28;20228;-75
2022/09/21 09:28:54;;;;;;;9.27;8.53;;;;;;;13.66;59.86;92952.72;5123836;28;20239;-76
2022/09/21 09:31:27;;;;;;;9.13;8.63;;;;;;;13.76;57.77;92957.78;5128565;28;20191;-76
2022/09/21 09:34:01;;;;;;;8.63;8.23;;;;;;;13.25;59.97;92957.06;5124661;28;20224;-75
2022/09/21 09:36:31;;;;;;;9.40;9.00;;;;;;;13.23;59.20;92953.94;5128476;28;20187;-75
2022/09/21 09:39:01;;;;;;;8.90;8.53;;;;;;;13.07;59.64;92946.59;5124711;27;20242;-74
2022/09/21 09:41:35;;;;;;;9.30;8.80;;;;;;;13.20;59.33;92949.25;5127293;28;20229;-74
2022/09/21 09:44:27;;;;;;;10.10;9.60;;;;;;;12.62;61.34;92942.75;5124350;28;20239;-74
2022/09/21 09:47:10;;;;;;;9.53;9.13;;;;;;;12.68;61.79;92936.38;5126552;28;20188;-74
2022/09/21 09:50:00;;;;;;;9.23;8.83;;;;;;;12.50;60.71;92909.09;5126245;28;20226;-74
2022/09/21 09:52:26;;;;;;;9.10;8.70;;;;;;;12.59;59.69;92889.06;5127440;28;20195;-75
2022/09/21 09:54:53;;;;;;;9.33;8.93;;;;;;;12.40;60.03;92929.41;5126465;28;20218;-74
2022/09/21 09:57:27;;;;;;;9.00;8.60;;;;;;;12.64;60.17;92914.41;5128602;28;20191;-75
2022/09/21 09:59:57;;;;;;;8.63;8.23;;;;;;;12.85;59.93;92926.19;5126227;28;20273;-74
2022/09/21 10:02:25;;;;;;;8.43;8.07;;;;;;;12.85;57.81;92913.09;5127740;28;20179;-72
2022/09/21 10:05:04;;;;;;;8.80;8.40;;;;;;;12.86;57.59;92919.88;5125308;28;20219;-70
2022/09/21 10:07:38;;;;;;;9.00;8.63;;;;;;;12.85;56.75;92919.09;5126452;28;20178;-75
2022/09/21 10:10:31;;;;;;;8.23;7.93;;;;;;;13.09;57.38;92910.41;5125844;28;20316;-74
2022/09/21 10:13:28;;;;;;;8.70;8.30;;;;;;;13.14;58.97;92907.69;5118297;28;20204;-75
2022/09/21 10:15:55;;;;;;;9.37;8.97;;;;;;;12.77;58.32;92898.78;5126998;28;20267;-73
2022/09/21 10:18:25;;;;;;;8.70;8.40;;;;;;;13.18;56.48;92919.94;5128113;28;20178;-72
2022/09/21 10:20:53;;;;;;;8.67;8.37;;;;;;;13.04;54.80;92913.88;5125523;28;20259;-72
2022/09/21 10:23:19;;;;;;;9.13;8.73;;;;;;;12.51;57.14;92909.91;5126031;28;20234;-72
2022/09/21 10:25:59;;;;;;;8.30;8.00;;;;;;;12.67;58.60;92885.81;5126878;28;20239;-72
2022/09/21 10:28:25;;;;;;;9.47;9.07;;;;;;;12.77;57.85;92898.00;5125246;28;20184;-72
2022/09/21 10:31:07;;;;;;;8.17;7.87;;;;;;;13.14;58.76;92905.06;5125704;28;20184;-71
2022/09/21 10:33:41;;;;;;;9.00;8.43;;;;;;;12.91;58.80;92902.25;5127524;28;20197;-72
2022/09/21 10:36:24;;;;;;;9.40;8.90;;;;;;;12.38;59.12;92905.34;5127797;28;20188;-72
2022/09/21 10:38:50;;;;;;;8.77;8.37;;;;;;;12.26;60.05;92895.31;5126899;28;20227;-72
2022/09/21 10:41:15;;;;;;;9.20;8.87;;;;;;;12.22;60.69;92890.88;5125523;28;20186;-72
2022/09/21 10:43:43;;;;;;;8.27;7.97;;;;;;;12.52;60.43;92872.94;5126269;28;20259;-71
2022/09/21 10:46:09;;;;;;;8.63;8.27;;;;;;;12.87;58.05;92903.09;5125191;28;20206;-70
2022/09/21 10:48:35;;;;;;;8.20;7.90;;;;;;;12.76;57.05;92891.22;5126169;28;20201;-71
2022/09/21 10:51:02;;;;;;;8.67;8.37;;;;;;;12.87;55.78;92869.03;5126974;28;20211;-76
2022/09/21 10:53:30;;;;;;;8.37;8.07;;;;;;;13.10;56.73;92888.34;5128942;28;20186;-76
2022/09/21 10:56:03;;;;;;;8.07;7.67;;;;;;;13.04;53.92;92877.19;5127391;28;20187;-76
2022/09/21 10:58:30;;;;;;;8.50;8.10;;;;;;;13.07;53.98;92879.22;5131781;27;20219;-76
2022/09/21 11:01:08;;;;;;;8.40;8.10;;;;;;;13.11;53.82;92885.44;5132822;28;20182;-74
2022/09/21 11:03:59;;;;;;;9.17;8.77;;;;;;;13.27;54.66;92886.75;5128350;28;20191;-76
2022/09/21 11:06:36;;;;;;;9.50;8.97;;;;;;;13.48;52.38;92882.72;5131399;28;20167;-76
2022/09/21 11:09:23;;;;;;;8.50;8.10;;;;;;;13.71;53.29;92868.66;5129733;28;20256;-76
2022/09/21 11:11:55;;;;;;;8.13;7.83;;;;;;;13.92;53.12;92884.81;5130310;28;20180;-75
2022/09/21 11:14:44;;;;;;;8.37;8.07;;;;;;;13.72;52.25;92887.81;5129520;27;20222;-75
2022/09/21 11:17:21;;;;;;;9.13;8.70;;;;;;;13.64;53.99;92881.38;5146303;27;20182;-75
2022/09/21 11:19:53;;;;;;;8.70;8.30;;;;;;;13.70;54.27;92874.19;5129262;28;20245;-76
2022/09/21 11:22:33;;;;;;;8.73;8.43;;;;;;;13.50;54.85;92862.22;5130027;28;20175;-76
2022/09/21 11:25:14;;;;;;;8.97;8.47;;;;;;;13.72;55.14;92880.72;5129423;28;20215;-76
2022/09/21 11:27:44;;;;;;;9.73;9.23;;;;;;;13.77;54.50;92883.25;5128310;28;20187;-76
2022/09/21 11:30:12;;;;;;;8.37;8.07;;;;;;;13.86;53.60;92881.50;5129843;28;20287;-76
2022/09/21 11:33:01;;;;;;;8.20;7.90;;;;;;;14.11;52.48;92896.00;5131047;28;20188;-76
2022/09/21 11:35:42;;;;;;;7.53;7.03;;;;;;;14.37;49.92;92878.69;5120773;28;20233;-76
2022/09/21 11:38:40;;;;;;;9.87;9.10;;;;;;;13.99;49.60;92883.34;5130551;28;20191;-75
2022/09/21 11:41:44;;;;;;;8.77;8.40;;;;;;;13.68;49.42;92865.84;5129926;28;20215;-76
2022/09/21 11:44:48;;;;;;;9.23;8.83;;;;;;;13.33;49.96;92833.16;5129520;28;20425;-76
2022/09/21 11:47:25;;;;;;;8.87;8.30;;;;;;;13.74;50.40;92875.19;5121360;28;20191;-76
2022/09/21 11:50:03;;;;;;;8.00;7.70;;;;;;;13.62;50.92;92882.75;5124877;28;20223;-77
2022/09/21 11:53:03;;;;;;;8.87;8.57;;;;;;;13.44;50.69;92888.84;5129722;28;21003;-76
2022/09/21 11:55:46;;;;;;;8.93;8.53;;;;;;;13.42;50.55;92883.88;5127962;28;20243;-77
2022/09/21 11:58:22;;;;;;;9.33;8.93;;;;;;;13.17;52.91;92889.53;5127262;28;20195;-77